Terminal Aerodrome Forecast
Issued by NWS

Home | Current Version | Previous Version | Text Only | Print | Product List | Glossary On
Versions: 1 2 3 4 5 6 7 8 9 10 11 12 13 14 15 16 17 18 19 20 21
000
FTUS44 KSJT 160500
TAFBBD
TAF
KBBD 160520Z 1606/1706 09005KT P6SM VCSH BKN070
     FM161400 17004KT P6SM SCT015
     FM161800 14004KT P6SM SCT040 BKN250
      AMD NOT SKED=

USA.gov is the U.S. government's official web portal to all federal, state and local government web resources and services.